Time;durP1;ratioP1;P1;durP2;ratioP2;P2;SDS_P1;SDS_P2;PMS_P1;PMS_P2;Temp;Humidity;BMP_temperature;BMP_pressure;BME280_temperature;BME280_humidity;BME280_pressure;Samples;Min_cycle;Max_cycle;Signal;HPM_P1;HPM_P2
2021/10/03 00:01:25;;;;;;;7.42;4.78;;;;;;;15.97;41.33;101698.16;1660419;84;21039;-75
2021/10/03 00:03:53;;;;;;;7.17;4.50;;;;;;;15.95;41.42;101684.39;1661552;84;21565;-66
2021/10/03 00:06:19;;;;;;;8.78;4.70;;;;;;;15.85;41.82;101688.60;1659316;85;20854;-76
2021/10/03 00:08:46;;;;;;;6.17;3.95;;;;;;;16.52;40.98;101688.88;1660747;85;21142;-67
2021/10/03 00:11:13;;;;;;;8.38;4.75;;;;;;;16.59;40.66;101691.05;1663925;84;21554;-66
2021/10/03 00:13:40;;;;;;;9.85;4.75;;;;;;;17.05;39.95;101692.03;1687412;83;20996;-67
2021/10/03 00:16:08;;;;;;;6.65;4.30;;;;;;;17.15;39.48;101689.86;1691309;83;21626;-71
2021/10/03 00:18:36;;;;;;;8.00;4.87;;;;;;;17.12;39.53;101690.27;1686038;83;21084;-67
2021/10/03 00:21:04;;;;;;;7.60;4.87;;;;;;;17.11;39.44;101693.06;1693910;83;21124;-66
2021/10/03 00:23:32;;;;;;;7.35;4.55;;;;;;;16.41;40.31;101702.53;1694392;83;21076;-75
2021/10/03 00:26:00;;;;;;;8.83;4.45;;;;;;;16.47;40.60;101708.34;1696741;83;21263;-67
2021/10/03 00:28:27;;;;;;;9.35;4.53;;;;;;;16.75;40.34;101709.28;1692484;83;21111;-68
2021/10/03 00:30:53;;;;;;;7.50;3.98;;;;;;;16.84;40.04;101701.25;1696467;83;21081;-67
2021/10/03 00:33:21;;;;;;;7.25;4.42;;;;;;;16.88;39.96;101698.55;1697975;83;22263;-67
2021/10/03 00:35:48;;;;;;;8.90;4.58;;;;;;;16.65;40.40;101694.27;1696098;83;21635;-75
2021/10/03 00:38:14;;;;;;;10.10;4.40;;;;;;;16.79;40.42;101700.51;1693412;83;22296;-70
2021/10/03 00:40:41;;;;;;;12.37;4.58;;;;;;;16.84;40.25;101700.75;1696693;83;22258;-70
2021/10/03 00:43:11;;;;;;;8.08;4.58;;;;;;;16.96;40.03;101693.95;1681382;83;21014;-69
2021/10/03 00:45:39;;;;;;;8.95;4.90;;;;;;;17.07;39.98;101695.77;1674468;83;21044;-70
2021/10/03 00:48:06;;;;;;;9.78;4.40;;;;;;;17.07;39.88;101688.68;1672938;83;21013;-73
2021/10/03 00:50:33;;;;;;;7.83;4.50;;;;;;;17.04;39.91;101691.69;1678827;83;21757;-69
2021/10/03 00:53:00;;;;;;;7.90;4.83;;;;;;;16.97;40.20;101687.70;1642431;85;20987;-70
2021/10/03 00:55:27;;;;;;;7.22;4.42;;;;;;;17.07;39.56;101687.87;1625690;86;21084;-70
2021/10/03 00:57:54;;;;;;;8.65;4.80;;;;;;;17.34;39.23;101687.55;1625823;86;21183;-73
2021/10/03 01:00:24;;;;;;;8.13;4.28;;;;;;;16.99;39.88;101685.68;1676446;83;20989;-69
2021/10/03 01:02:53;;;;;;;6.78;4.40;;;;;;;17.20;39.22;101683.53;1674189;83;20999;-70
2021/10/03 01:05:20;;;;;;;8.40;4.70;;;;;;;17.51;39.13;101687.58;1677688;83;21016;-69
2021/10/03 01:07:46;;;;;;;6.60;4.97;;;;;;;17.31;39.33;101685.30;1676335;83;20988;-69
2021/10/03 01:10:19;;;;;;;10.95;4.67;;;;;;;17.11;39.36;101687.29;1678028;83;21168;-72
2021/10/03 01:12:45;;;;;;;8.55;4.87;;;;;;;17.29;39.36;101689.97;1677201;83;21134;-69
2021/10/03 01:15:12;;;;;;;9.63;5.08;;;;;;;17.02;39.46;101692.40;1678834;83;21121;-69
2021/10/03 01:17:39;;;;;;;7.92;4.87;;;;;;;17.28;39.45;101693.11;1678034;83;20975;-73
2021/10/03 01:20:07;;;;;;;11.03;5.55;;;;;;;17.38;39.31;101696.20;1676843;83;21001;-73
2021/10/03 01:22:36;;;;;;;7.92;4.50;;;;;;;17.53;39.03;101701.37;1681747;83;21111;-69
2021/10/03 01:25:07;;;;;;;7.45;4.83;;;;;;;17.42;39.13;101696.62;1673429;83;21077;-69
2021/10/03 01:27:36;;;;;;;6.30;4.37;;;;;;;17.41;39.13;101695.82;1680625;83;21008;-73
2021/10/03 01:30:06;;;;;;;8.50;4.53;;;;;;;17.73;38.65;101698.36;1645183;85;21161;-69
2021/10/03 01:32:32;;;;;;;9.98;4.50;;;;;;;17.71;38.68;101699.55;1646232;85;21551;-69
2021/10/03 01:34:59;;;;;;;8.63;4.30;;;;;;;17.58;38.74;101693.70;1645182;85;22247;-69
2021/10/03 01:37:25;;;;;;;7.50;4.60;;;;;;;17.81;38.41;101699.23;1646038;85;20991;-70
2021/10/03 01:39:52;;;;;;;7.50;4.60;;;;;;;17.78;38.35;101695.16;1646260;85;21552;-70
2021/10/03 01:42:19;;;;;;;7.35;4.12;;;;;;;17.33;38.77;101693.84;1645230;85;21003;-71
2021/10/03 01:44:45;;;;;;;9.00;4.12;;;;;;;17.38;38.93;101696.70;1646412;85;21036;-69
2021/10/03 01:47:12;;;;;;;6.08;4.22;;;;;;;17.23;39.03;101693.66;1645402;85;21201;-70
2021/10/03 01:49:38;;;;;;;6.37;4.00;;;;;;;17.35;38.90;101690.50;1646425;85;20938;-73
2021/10/03 01:52:05;;;;;;;8.10;4.22;;;;;;;17.00;39.40;101693.08;1652695;85;22210;-70
2021/10/03 01:54:34;;;;;;;8.00;4.60;;;;;;;17.24;39.22;101690.55;1651920;85;21576;-69
2021/10/03 01:57:02;;;;;;;10.75;4.58;;;;;;;17.20;39.25;101690.63;1647146;85;21570;-69
2021/10/03 01:59:29;;;;;;;6.85;4.08;;;;;;;16.85;39.72;101694.47;1648040;84;21172;-72
2021/10/03 02:01:57;;;;;;;7.10;4.58;;;;;;;16.85;39.95;101697.61;1646069;84;20960;-68
2021/10/03 02:04:28;;;;;;;6.95;4.25;;;;;;;16.85;40.10;101691.02;1647362;85;21056;-69
2021/10/03 02:06:55;;;;;;;8.78;4.58;;;;;;;15.81;41.20;101697.35;1642600;84;21003;-70
2021/10/03 02:09:24;;;;;;;10.08;4.03;;;;;;;16.41;40.80;101685.42;1650380;85;21023;-72
2021/10/03 02:11:57;;;;;;;8.08;4.40;;;;;;;16.61;40.67;101686.93;1642618;85;21151;-70
2021/10/03 02:14:30;;;;;;;10.60;4.12;;;;;;;16.47;40.61;101688.09;1649164;85;20964;-69
2021/10/03 02:17:01;;;;;;;7.20;4.17;;;;;;;16.41;40.63;101690.69;1646815;84;20983;-69
2021/10/03 02:19:29;;;;;;;8.93;4.50;;;;;;;16.78;40.32;101682.58;1648496;85;21498;-69
2021/10/03 02:21:56;;;;;;;6.08;3.90;;;;;;;17.04;39.67;101685.11;1647317;85;21615;-69
2021/10/03 02:24:22;;;;;;;7.37;4.28;;;;;;;17.13;39.49;101681.34;1649807;84;21202;-69
2021/10/03 02:26:49;;;;;;;8.48;4.22;;;;;;;16.68;39.79;101678.09;1646907;84;21008;-69
2021/10/03 02:29:16;;;;;;;12.20;4.30;;;;;;;16.84;39.85;101685.45;1646751;85;21056;-70
2021/10/03 02:31:43;;;;;;;8.40;4.17;;;;;;;16.14;40.72;101685.59;1646797;84;21051;-68
2021/10/03 02:34:09;;;;;;;6.28;4.15;;;;;;;16.32;40.94;101679.94;1643588;84;20954;-66
2021/10/03 02:36:36;;;;;;;9.55;3.75;;;;;;;16.29;40.88;101685.91;1645537;84;21096;-72
2021/10/03 02:39:03;;;;;;;8.10;4.55;;;;;;;16.33;40.72;101686.35;1642124;85;21550;-72
2021/10/03 02:41:31;;;;;;;8.68;4.85;;;;;;;16.28;41.00;101688.20;1644871;84;21133;-67
2021/10/03 02:43:58;;;;;;;6.40;3.75;;;;;;;16.13;41.13;101685.29;1642362;85;21488;-70
2021/10/03 02:46:25;;;;;;;6.87;3.85;;;;;;;15.83;41.46;101688.45;1645412;84;21021;-68
2021/10/03 02:48:52;;;;;;;7.40;4.72;;;;;;;15.97;41.41;101679.75;1625392;85;21508;-68
2021/10/03 02:51:20;;;;;;;5.92;4.08;;;;;;;16.21;41.14;101676.81;1642606;85;21052;-73
2021/10/03 02:53:47;;;;;;;8.83;4.22;;;;;;;16.33;40.84;101681.09;1645334;84;21092;-68
2021/10/03 02:56:18;;;;;;;8.88;4.20;;;;;;;15.40;41.80;101678.55;1644212;84;20962;-69
2021/10/03 02:58:45;;;;;;;7.62;4.28;;;;;;;15.28;42.76;101679.48;1644165;84;20978;-68
2021/10/03 03:01:11;;;;;;;5.83;4.05;;;;;;;15.38;42.55;101683.18;1675764;82;21951;-73
2021/10/03 03:03:38;;;;;;;8.48;4.80;;;;;;;15.22;42.75;101680.19;1766171;80;21047;-67
2021/10/03 03:06:06;;;;;;;7.15;4.35;;;;;;;15.49;42.44;101679.27;1766182;80;21477;-68
2021/10/03 03:08:33;;;;;;;5.28;3.95;;;;;;;15.48;42.44;101680.27;1769537;80;21628;-67
2021/10/03 03:11:02;;;;;;;6.17;4.17;;;;;;;15.63;42.12;101673.20;1765529;79;21490;-73
2021/10/03 03:13:29;;;;;;;6.17;3.95;;;;;;;15.70;42.01;101684.66;1771482;80;21120;-69
2021/10/03 03:15:57;;;;;;;9.63;4.45;;;;;;;15.55;42.26;101686.44;1772074;80;20862;-68
2021/10/03 03:18:24;;;;;;;6.35;4.22;;;;;;;14.94;43.12;101688.33;1772177;80;20996;-68
2021/10/03 03:20:51;;;;;;;9.23;4.20;;;;;;;15.06;43.28;101686.41;1769825;80;21089;-72
2021/10/03 03:23:17;;;;;;;6.12;4.17;;;;;;;15.43;42.76;101682.63;1769217;79;21047;-69
2021/10/03 03:25:43;;;;;;;9.23;3.92;;;;;;;15.54;42.52;101685.63;1769560;80;21153;-69
2021/10/03 03:28:11;;;;;;;7.80;3.98;;;;;;;15.50;42.44;101678.30;1769000;80;20940;-67
2021/10/03 03:30:37;;;;;;;7.67;4.15;;;;;;;14.04;44.39;101694.09;1767465;79;21065;-67
2021/10/03 03:33:04;;;;;;;9.38;4.92;;;;;;;14.22;44.79;101688.11;1763359;80;21075;-68
2021/10/03 03:35:31;;;;;;;8.18;4.60;;;;;;;14.44;44.84;101689.64;1734470;80;21085;-68
2021/10/03 03:37:58;;;;;;;8.35;4.17;;;;;;;14.98;44.16;101692.23;1767641;80;22300;-69
2021/10/03 03:40:25;;;;;;;7.70;4.00;;;;;;;15.08;43.92;101682.31;1767895;80;21034;-69
2021/10/03 03:42:53;;;;;;;9.55;4.62;;;;;;;15.18;43.62;101682.05;1764486;80;20996;-71
2021/10/03 03:45:20;;;;;;;8.60;4.78;;;;;;;15.40;43.45;101684.30;1757946;80;21050;-69
2021/10/03 03:47:47;;;;;;;11.55;4.58;;;;;;;15.65;43.08;101681.77;1769008;80;22342;-68
2021/10/03 03:50:16;;;;;;;8.33;4.83;;;;;;;15.65;43.01;101683.56;1766447;80;21126;-68
2021/10/03 03:52:44;;;;;;;7.58;4.37;;;;;;;15.75;42.86;101679.66;1765553;80;20991;-69
2021/10/03 03:55:10;;;;;;;6.42;4.28;;;;;;;15.91;42.78;101680.47;1765742;80;21114;-69
2021/10/03 03:57:37;;;;;;;7.58;4.20;;;;;;;16.04;42.09;101679.33;1764133;80;21111;-70
2021/10/03 04:00:07;;;;;;;11.68;5.45;;;;;;;16.32;42.07;101690.47;1766554;80;21545;-69
2021/10/03 04:02:33;;;;;;;6.78;4.37;;;;;;;16.94;41.07;101684.64;1739153;80;21810;-69
2021/10/03 04:05:00;;;;;;;8.53;4.50;;;;;;;17.20;40.23;101678.77;1767722;80;20928;-69
2021/10/03 04:07:26;;;;;;;8.38;4.80;;;;;;;17.29;40.11;101686.82;1766802;80;21102;-72
2021/10/03 04:09:53;;;;;;;7.83;4.97;;;;;;;17.66;39.59;101679.05;1769190;80;20991;-69
2021/10/03 04:12:21;;;;;;;9.80;4.60;;;;;;;18.06;38.85;101681.88;1768822;80;21028;-70
2021/10/03 04:14:48;;;;;;;14.77;4.60;;;;;;;18.37;38.31;101684.50;1763942;80;21243;-71
2021/10/03 04:17:14;;;;;;;8.93;5.23;;;;;;;18.68;37.60;101684.78;1768495;80;21183;-70
2021/10/03 04:19:42;;;;;;;9.40;4.90;;;;;;;18.78;37.51;101691.00;1764065;80;21809;-70
2021/10/03 04:22:09;;;;;;;8.30;4.00;;;;;;;19.09;36.70;101698.83;1768549;80;22350;-70
2021/10/03 04:24:36;;;;;;;10.97;5.30;;;;;;;19.32;36.05;101687.34;1766961;80;21393;-70
2021/10/03 04:27:03;;;;;;;7.00;4.63;;;;;;;19.78;35.62;101685.12;1767144;80;21259;-70
2021/10/03 04:29:29;;;;;;;8.40;4.23;;;;;;;20.18;34.68;101688.39;1767229;80;21470;-69
2021/10/03 04:31:56;;;;;;;8.53;4.23;;;;;;;20.18;34.68;101688.39;1764498;80;21964;-71
2021/10/03 04:34:22;;;;;;;8.70;4.40;;;;;;;21.32;32.87;101679.10;1768271;80;21708;-69
2021/10/03 04:36:50;;;;;;;7.13;3.90;;;;;;;21.36;32.46;101685.62;1768094;80;21302;-69
2021/10/03 04:39:17;;;;;;;8.87;4.33;;;;;;;21.36;32.46;101685.62;1766789;80;22005;-73
2021/10/03 04:41:44;;;;;;;7.43;4.13;;;;;;;20.26;33.33;101700.56;1758669;80;23248;-70
2021/10/03 04:44:11;;;;;;;7.23;4.57;;;;;;;20.26;33.33;101700.56;1754688;80;21967;-69
2021/10/03 04:46:38;;;;;;;8.33;4.40;;;;;;;19.89;34.01;101698.22;1774384;80;22158;-69
2021/10/03 04:49:05;;;;;;;8.40;4.17;;;;;;;19.89;34.01;101698.22;1773022;79;21549;-71
2021/10/03 04:51:31;;;;;;;9.93;4.73;;;;;;;19.48;34.57;101695.34;1771780;80;21782;-69
2021/10/03 04:53:59;;;;;;;6.83;4.03;;;;;;;19.34;34.62;101695.06;1773390;80;22266;-71
2021/10/03 04:56:25;;;;;;;7.70;4.27;;;;;;;19.34;34.62;101695.06;1771002;80;21703;-68
2021/10/03 04:58:52;;;;;;;7.33;4.30;;;;;;;19.06;35.42;101698.75;1773355;80;21356;-69
2021/10/03 05:01:19;;;;;;;8.43;4.23;;;;;;;19.24;35.43;101697.30;1772749;80;21446;-68
2021/10/03 05:03:46;;;;;;;8.67;4.60;;;;;;;18.98;35.69;101705.56;1771107;80;22365;-71
2021/10/03 05:06:12;;;;;;;12.30;4.60;;;;;;;18.60;36.38;101703.95;1764102;80;21249;-68
2021/10/03 05:08:40;;;;;;;7.00;4.90;;;;;;;18.68;36.34;101699.31;1759042;80;21297;-68
2021/10/03 05:11:07;;;;;;;8.23;4.30;;;;;;;19.24;35.71;101697.30;1763363;80;21176;-73
2021/10/03 05:13:33;;;;;;;10.27;5.00;;;;;;;19.42;35.65;101689.55;1766820;80;21782;-68
2021/10/03 05:16:00;;;;;;;7.27;4.73;;;;;;;19.55;35.47;101688.21;1771607;80;21355;-70
2021/10/03 05:18:29;;;;;;;8.13;4.20;;;;;;;19.66;35.10;101680.15;1771949;80;21819;-68
2021/10/03 05:20:55;;;;;;;9.60;4.37;;;;;;;19.84;34.94;101682.13;1760696;80;21251;-68
2021/10/03 05:23:23;;;;;;;14.53;4.73;;;;;;;19.79;34.58;101685.92;1769471;80;21659;-69
2021/10/03 05:25:50;;;;;;;7.97;3.90;;;;;;;19.80;34.80;101694.97;1765881;80;21228;-70
2021/10/03 05:28:17;;;;;;;8.87;4.50;;;;;;;19.65;35.01;101692.56;1760174;80;21129;-68
2021/10/03 05:30:44;;;;;;;9.57;4.67;;;;;;;19.72;34.97;101687.27;1760683;80;21199;-69
2021/10/03 05:33:10;;;;;;;7.53;4.10;;;;;;;19.78;34.86;101694.38;1767502;79;21770;-74
2021/10/03 05:35:37;;;;;;;7.83;4.70;;;;;;;19.91;34.69;101688.22;1769793;80;21400;-68
2021/10/03 05:38:03;;;;;;;8.93;4.63;;;;;;;19.64;35.29;101700.72;1771283;80;21210;-67
2021/10/03 05:40:31;;;;;;;10.77;4.83;;;;;;;19.95;34.61;101698.68;1771270;80;21290;-66
2021/10/03 05:42:58;;;;;;;6.87;3.90;;;;;;;20.03;34.66;101702.41;1772084;80;21219;-71
2021/10/03 05:45:26;;;;;;;10.83;3.90;;;;;;;19.74;34.68;101693.17;1771169;80;21952;-69
2021/10/03 05:47:53;;;;;;;10.63;4.60;;;;;;;20.29;34.08;101696.17;1766718;80;21439;-73
2021/10/03 05:50:20;;;;;;;8.90;3.80;;;;;;;20.29;34.08;101696.17;1770805;80;22707;-69
2021/10/03 05:52:47;;;;;;;9.03;4.70;;;;;;;20.69;34.04;101697.30;1771855;80;21557;-69
2021/10/03 05:55:14;;;;;;;8.63;4.67;;;;;;;21.03;33.54;101687.25;1771074;80;21693;-70
2021/10/03 05:57:40;;;;;;;8.53;4.47;;;;;;;21.32;32.93;101695.02;1772118;80;21697;-69
2021/10/03 06:00:08;;;;;;;7.37;3.87;;;;;;;21.82;32.14;101694.41;1771384;80;20944;-71
2021/10/03 06:02:35;;;;;;;9.80;4.30;;;;;;;22.10;31.76;101693.04;1748986;79;22219;-72
2021/10/03 06:05:02;;;;;;;7.70;3.90;;;;;;;22.57;31.36;101692.69;1725448;80;21109;-74
2021/10/03 06:07:29;;;;;;;7.53;4.10;;;;;;;23.38;29.97;101694.35;1730540;80;21499;-70
2021/10/03 06:09:56;;;;;;;6.80;3.80;;;;;;;23.97;29.42;101685.72;1732639;80;21029;-72
2021/10/03 06:12:23;;;;;;;7.77;4.00;;;;;;;24.21;29.21;101694.44;1733586;81;21068;-71
2021/10/03 06:14:50;;;;;;;8.10;4.40;;;;;;;24.51;28.59;101687.53;1727661;81;21116;-70
2021/10/03 06:17:17;;;;;;;8.83;3.80;;;;;;;24.71;28.48;101691.58;1731819;80;21110;-72
2021/10/03 06:19:44;;;;;;;8.30;3.63;;;;;;;25.19;27.59;101686.17;1725268;82;21155;-71
2021/10/03 06:22:13;;;;;;;7.23;3.57;;;;;;;26.28;26.68;101684.00;1725361;82;21483;-72
2021/10/03 06:24:40;;;;;;;5.90;3.20;;;;;;;26.60;25.92;101687.27;1727424;80;21187;-73
2021/10/03 06:27:06;;;;;;;5.00;3.10;;;;;;;26.65;25.66;101695.31;1728417;80;21500;-74
2021/10/03 06:29:35;;;;;;;5.10;3.60;;;;;;;26.84;25.26;101691.17;1723980;81;20938;-72
2021/10/03 06:32:02;;;;;;;5.10;3.47;;;;;;;26.49;25.61;101690.91;1726076;81;21045;-73
2021/10/03 06:34:29;;;;;;;5.43;3.27;;;;;;;26.68;25.43;101694.81;1722710;80;22499;-71
2021/10/03 06:36:55;;;;;;;5.03;3.53;;;;;;;26.90;25.10;101694.17;1717321;81;21040;-70
2021/10/03 06:39:22;;;;;;;6.53;3.33;;;;;;;26.90;25.37;101701.40;1726563;80;20989;-71
2021/10/03 06:41:49;;;;;;;5.10;3.03;;;;;;;27.07;24.75;101708.72;1722790;80;22440;-71
2021/10/03 06:44:16;;;;;;;5.03;2.97;;;;;;;27.31;24.45;101691.75;1726187;80;21374;-71
2021/10/03 06:46:43;;;;;;;5.73;3.50;;;;;;;27.57;23.96;101695.88;1727052;80;21736;-72
2021/10/03 06:49:09;;;;;;;5.50;3.00;;;;;;;27.81;23.91;101699.77;1725828;80;20879;-69
2021/10/03 06:51:36;;;;;;;5.00;3.30;;;;;;;27.65;24.14;101692.70;1728276;81;20882;-73
2021/10/03 06:54:03;;;;;;;6.07;3.20;;;;;;;27.50;24.16;101693.98;1722787;81;21071;-72
2021/10/03 06:56:30;;;;;;;5.13;3.20;;;;;;;27.10;24.31;101703.39;1727087;80;21041;-71
2021/10/03 06:58:56;;;;;;;4.43;2.70;;;;;;;26.85;24.06;101694.12;1724021;80;21080;-72
2021/10/03 07:01:23;;;;;;;6.40;3.23;;;;;;;27.04;24.22;101685.14;1733323;80;21001;-72
2021/10/03 07:03:50;;;;;;;6.20;3.13;;;;;;;27.15;23.90;101680.16;1757731;80;21409;-74
2021/10/03 07:06:17;;;;;;;5.47;2.97;;;;;;;26.38;24.87;101684.63;1765734;80;21140;-72
2021/10/03 07:08:43;;;;;;;7.00;3.50;;;;;;;26.94;24.38;101677.08;1765362;80;21009;-73
2021/10/03 07:11:12;;;;;;;7.47;3.77;;;;;;;27.27;23.77;101675.13;1765138;79;21562;-72
2021/10/03 07:13:39;;;;;;;5.47;2.83;;;;;;;26.67;23.84;101677.16;1760409;80;20971;-73
2021/10/03 07:16:06;;;;;;;4.27;2.60;;;;;;;26.33;24.24;101683.23;1768088;80;21093;-71
2021/10/03 07:18:33;;;;;;;5.57;2.80;;;;;;;26.82;24.16;101687.97;1734144;80;22441;-71
2021/10/03 07:21:00;;;;;;;5.17;3.07;;;;;;;26.78;23.82;101684.16;1765883;80;20979;-71
2021/10/03 07:23:29;;;;;;;5.23;2.90;;;;;;;26.62;23.89;101685.13;1769523;80;20948;-74
2021/10/03 07:25:55;;;;;;;5.53;3.43;;;;;;;26.56;24.46;101679.48;1771290;80;20995;-72
2021/10/03 07:28:24;;;;;;;5.20;3.17;;;;;;;26.50;24.38;101681.28;1768495;80;21037;-70
2021/10/03 07:30:51;;;;;;;4.50;2.97;;;;;;;27.06;23.63;101677.67;1770438;80;21145;-69
2021/10/03 07:33:18;;;;;;;6.80;3.27;;;;;;;27.10;23.82;101668.59;1771085;80;20931;-70
2021/10/03 07:35:46;;;;;;;6.47;2.83;;;;;;;27.13;24.04;101674.81;1771634;80;21026;-76
2021/10/03 07:38:13;;;;;;;9.43;3.87;;;;;;;27.15;23.77;101668.64;1771713;80;20951;-70
2021/10/03 07:40:41;;;;;;;5.10;2.97;;;;;;;27.14;24.05;101671.86;1768856;80;21640;-70
2021/10/03 07:43:08;;;;;;;4.47;2.80;;;;;;;27.19;23.98;101668.94;1771607;79;21128;-69
2021/10/03 07:45:36;;;;;;;4.73;2.40;;;;;;;26.72;24.74;101673.17;1770851;80;20959;-74
2021/10/03 07:48:03;;;;;;;5.53;2.50;;;;;;;26.26;24.36;101667.42;1761220;79;20914;-69
2021/10/03 07:50:29;;;;;;;6.60;2.40;;;;;;;26.06;24.20;101663.20;1771379;80;21034;-69
2021/10/03 07:52:56;;;;;;;6.33;2.77;;;;;;;26.48;24.27;101662.53;1763322;80;21082;-69
2021/10/03 07:55:28;;;;;;;5.27;2.63;;;;;;;26.66;24.11;101654.92;1764440;79;21069;-69
2021/10/03 07:57:51;;;;;;;6.07;2.70;;;;;;;26.54;24.25;101663.67;1770850;80;20998;-75
2021/10/03 08:00:18;;;;;;;5.07;2.70;;;;;;;26.68;24.06;101649.34;1771169;80;21082;-71
2021/10/03 08:02:44;;;;;;;8.23;2.60;;;;;;;26.90;23.67;101650.02;1771672;80;21624;-69
2021/10/03 08:05:12;;;;;;;6.33;2.73;;;;;;;26.83;23.47;101643.28;1771071;80;20943;-67
2021/10/03 08:07:39;;;;;;;5.20;2.37;;;;;;;25.93;24.41;101648.39;1770794;80;21137;-68
2021/10/03 08:10:06;;;;;;;6.30;2.20;;;;;;;25.84;24.17;101646.70;1771163;80;20923;-69
2021/10/03 08:12:34;;;;;;;4.47;2.00;;;;;;;25.76;24.38;101645.79;1763490;79;21050;-69
2021/10/03 08:15:00;;;;;;;2.37;1.60;;;;;;;26.11;23.97;101648.57;1769011;79;21105;-69
2021/10/03 08:17:27;;;;;;;2.90;1.90;;;;;;;26.37;23.50;101641.59;1765668;80;21476;-68
2021/10/03 08:19:53;;;;;;;3.70;2.10;;;;;;;26.64;23.14;101641.02;1766802;79;21126;-77
2021/10/03 08:22:19;;;;;;;6.97;2.70;;;;;;;26.51;22.86;101643.31;1767811;80;21128;-69
2021/10/03 08:24:46;;;;;;;4.27;1.70;;;;;;;26.63;22.75;101635.91;1766840;80;21035;-75
2021/10/03 08:27:13;;;;;;;4.20;1.60;;;;;;;25.76;23.38;101641.78;1766428;80;20975;-70
2021/10/03 08:29:39;;;;;;;4.40;2.20;;;;;;;25.19;24.07;101630.96;1765725;80;21079;-69
2021/10/03 08:32:07;;;;;;;4.73;2.30;;;;;;;25.16;24.38;101627.98;1766439;80;21133;-70
2021/10/03 08:34:34;;;;;;;3.83;1.97;;;;;;;25.51;24.83;101628.14;1768349;80;21512;-76
2021/10/03 08:37:01;;;;;;;4.80;1.50;;;;;;;25.91;23.81;101631.79;1770717;80;20970;-69
2021/10/03 08:39:28;;;;;;;5.90;1.83;;;;;;;25.99;23.72;101627.86;1769282;80;20989;-70
2021/10/03 08:41:56;;;;;;;3.97;1.90;;;;;;;25.69;23.61;101622.47;1767985;80;20979;-74
2021/10/03 08:44:26;;;;;;;5.47;1.87;;;;;;;25.48;24.09;101625.42;1768458;80;21128;-69
2021/10/03 08:46:52;;;;;;;4.40;1.57;;;;;;;25.89;23.52;101626.71;1768573;80;21042;-70
2021/10/03 08:49:19;;;;;;;5.13;1.60;;;;;;;26.12;23.08;101614.09;1768588;80;21019;-69
2021/10/03 08:51:47;;;;;;;4.67;2.60;;;;;;;26.07;22.93;101621.55;1768117;80;20987;-71
2021/10/03 08:54:16;;;;;;;3.07;1.33;;;;;;;25.95;23.09;101623.58;1768138;80;20975;-70
2021/10/03 08:56:43;;;;;;;5.23;1.67;;;;;;;25.50;23.25;101623.86;1766294;79;21164;-72
2021/10/03 08:59:10;;;;;;;3.30;1.70;;;;;;;25.52;23.47;101616.39;1767580;80;21211;-70
2021/10/03 09:01:55;;;;;;;3.97;1.40;;;;;;;25.36;23.67;101626.89;1763382;80;21064;-74
2021/10/03 09:04:32;;;;;;;6.23;1.60;;;;;;;25.72;23.36;101624.12;1753238;80;21005;-74
2021/10/03 09:07:08;;;;;;;5.87;1.80;;;;;;;25.52;23.78;101626.54;1769463;80;21013;-69
2021/10/03 09:09:58;;;;;;;5.67;1.97;;;;;;;25.93;23.63;101631.02;1769150;80;21129;-69
2021/10/03 09:12:28;;;;;;;4.60;1.50;;;;;;;26.01;23.26;101625.22;1767483;80;21125;-69
2021/10/03 09:14:56;;;;;;;8.73;2.40;;;;;;;25.89;23.54;101616.56;1767517;78;21460;-69
2021/10/03 09:17:22;;;;;;;8.60;2.50;;;;;;;25.75;23.35;101616.11;1763621;80;21603;-70
2021/10/03 09:20:10;;;;;;;5.23;1.97;;;;;;;25.95;23.36;101611.02;1764944;79;22601;-76
2021/10/03 09:23:06;;;;;;;4.57;2.10;;;;;;;25.73;23.51;101618.24;1767526;79;20912;-70
2021/10/03 09:25:45;;;;;;;5.37;1.80;;;;;;;25.91;23.57;101623.77;1766006;79;21533;-70
2021/10/03 09:28:31;;;;;;;3.73;1.83;;;;;;;25.51;23.62;101611.59;1758513;80;21136;-69
2021/10/03 09:31:08;;;;;;;4.20;2.00;;;;;;;26.20;23.21;101611.76;1768923;80;21493;-74
2021/10/03 09:33:46;;;;;;;3.60;1.60;;;;;;;26.64;22.25;101611.59;1767135;79;22387;-72
2021/10/03 09:36:23;;;;;;;3.80;2.20;;;;;;;26.65;22.19;101603.04;1771544;80;22340;-70
2021/10/03 09:38:55;;;;;;;4.67;1.97;;;;;;;26.32;22.68;101608.91;1765372;80;21613;-70
2021/10/03 09:41:29;;;;;;;6.07;2.20;;;;;;;26.40;22.64;101601.78;1770000;80;21128;-74
2021/10/03 09:44:07;;;;;;;7.40;2.30;;;;;;;26.58;22.71;101593.89;1768734;80;21038;-70
2021/10/03 09:46:50;;;;;;;6.43;2.33;;;;;;;26.28;22.78;101595.78;1766363;80;21125;-70
2021/10/03 09:49:29;;;;;;;6.43;2.60;;;;;;;26.35;22.66;101582.20;1765806;80;21140;-71
2021/10/03 09:51:57;;;;;;;4.70;2.70;;;;;;;26.68;22.26;101577.92;1769925;80;21578;-70
2021/10/03 09:54:25;;;;;;;7.30;2.43;;;;;;;26.71;22.45;101572.59;1768646;80;20933;-69
2021/10/03 09:56:52;;;;;;;4.17;1.83;;;;;;;26.73;22.24;101584.36;1768359;80;22161;-69
2021/10/03 09:59:19;;;;;;;4.43;2.20;;;;;;;26.57;22.58;101574.11;1767986;80;20881;-69
2021/10/03 10:01:46;;;;;;;5.07;2.20;;;;;;;26.37;22.73;101578.77;1768849;80;22043;-69
2021/10/03 10:04:15;;;;;;;5.40;3.00;;;;;;;26.25;22.69;101580.78;1769179;80;20940;-74
2021/10/03 10:06:45;;;;;;;3.67;2.10;;;;;;;26.12;23.15;101578.02;1766291;80;21008;-70
2021/10/03 10:09:19;;;;;;;4.37;2.40;;;;;;;26.23;22.56;101565.55;1770611;79;20920;-70
2021/10/03 10:12:07;;;;;;;6.07;3.13;;;;;;;26.10;22.13;101574.78;1769258;80;21079;-69
2021/10/03 10:14:37;;;;;;;4.43;1.50;;;;;;;25.96;22.34;101568.54;1769339;80;21124;-73
2021/10/03 10:17:38;;;;;;;3.70;1.80;;;;;;;26.00;22.42;101575.52;1766934;80;21018;-70
2021/10/03 10:20:22;;;;;;;;;;;;;;;26.23;22.17;101552.98;1769303;79;20987;-74
2021/10/03 10:23:01;;;;;;;4.00;1.73;;;;;;;26.37;22.08;101568.06;1767452;80;20727;-70
2021/10/03 10:25:49;;;;;;;5.23;2.23;;;;;;;26.36;21.93;101555.20;1768347;80;21149;-69
2021/10/03 10:28:22;;;;;;;3.17;1.33;;;;;;;26.34;22.24;101556.01;1768791;80;21114;-69
2021/10/03 10:31:11;;;;;;;4.00;2.00;;;;;;;26.51;22.32;101555.07;1769207;80;20881;-70
2021/10/03 10:34:04;;;;;;;3.67;1.77;;;;;;;26.88;21.60;101553.14;1767280;79;20889;-69
2021/10/03 10:36:39;;;;;;;3.03;1.60;;;;;;;26.88;21.53;101531.73;1764755;80;21471;-75
2021/10/03 10:39:14;;;;;;;6.37;4.10;;;;;;;26.98;21.69;101540.89;1764768;80;21061;-70
2021/10/03 10:41:46;;;;;;;3.23;1.50;;;;;;;27.51;21.20;101537.59;1767343;79;21015;-75
2021/10/03 10:44:29;;;;;;;6.60;1.85;;;;;;;27.36;20.82;101555.23;1765801;80;21054;-70
2021/10/03 10:47:14;;;;;;;3.10;1.53;;;;;;;26.36;21.29;101549.06;1717694;80;22162;-70
2021/10/03 10:49:48;;;;;;;3.60;2.10;;;;;;;26.01;22.04;101538.91;1767722;80;21570;-70
2021/10/03 10:52:25;;;;;;;4.07;1.57;;;;;;;26.34;21.78;101539.17;1770171;80;21537;-71
2021/10/03 10:55:12;;;;;;;2.80;1.63;;;;;;;25.89;22.07;101537.75;1767559;80;21093;-71
2021/10/03 10:58:05;;;;;;;4.97;2.10;;;;;;;26.12;21.83;101531.25;1761073;80;20997;-78
2021/10/03 11:00:32;;;;;;;6.22;2.33;;;;;;;25.68;21.95;101540.22;1768054;79;24491;-74
2021/10/03 11:03:04;;;;;;;6.27;1.90;;;;;;;25.60;22.04;101531.84;1767753;80;21054;-69
2021/10/03 11:05:39;;;;;;;;;;;;;;;25.77;21.96;101534.41;1741103;82;21043;-71
2021/10/03 11:08:10;;;;;;;4.27;1.97;;;;;;;25.99;21.93;101537.84;1740183;80;21125;-67
2021/10/03 11:11:00;;;;;;;;;;;;;;;25.98;21.96;101530.06;1741029;80;20998;-68
2021/10/03 11:13:47;;;;;;;3.90;1.50;;;;;;;25.92;21.83;101531.91;1737458;82;20098;-69
2021/10/03 11:16:34;;;;;;;4.20;1.90;;;;;;;26.05;21.64;101522.64;1738979;81;20923;-70
2021/10/03 11:19:20;;;;;;;3.00;1.70;;;;;;;25.93;21.66;101524.16;1739733;82;21434;-67
2021/10/03 11:21:50;;;;;;;2.30;1.40;;;;;;;25.53;22.02;101528.55;1727643;82;21129;-69
2021/10/03 11:24:28;;;;;;;3.47;1.90;;;;;;;25.57;21.85;101525.16;1737032;82;20963;-71
2021/10/03 11:27:05;;;;;;;3.67;2.10;;;;;;;25.73;21.78;101519.42;1737130;82;21054;-67
2021/10/03 11:29:36;;;;;;;4.33;1.70;;;;;;;25.43;22.02;101525.27;1738883;81;21018;-68
2021/10/03 11:32:13;;;;;;;5.50;2.23;;;;;;;25.35;22.10;101527.06;1738731;80;20970;-70
2021/10/03 11:34:53;;;;;;;3.73;1.80;;;;;;;25.30;22.33;101525.11;1737243;82;21467;-68